Portada
METAR-TAF:

METAR-TAF

Aeroports :

Seül Inchon, Corea del Sud

latitud: 37-28N, longitud: 126-27E, altitud: 7 m

Observació

L'informe es va fer fa 11 minuts, a les 21:00 UTC
Vent 7 kt del Nord-Est
Temperatura 28°C
Humitat 74%
Pressió 1008 hPa
Visibilitat 10 km o més
sense núvols per sota de 1500 mi sense presència de cumulonimbus.

METAR: RKSI 142100Z 05007KT CAVOK 28/23 Q1008 NOSIG

Hora: 06:11 (21:11 UTC)

Pronòstic

L'informe es va fer fa 4 hores i 11 minuts, a les 17:00 UTC
Pronòstic vàlid del 14 a les 18 UTC al 15 a les 24 UTC
Vent 7 kt del Est/Nord-Est
Visibilitat: 7000 m
Núvols disperses a una alçada de 3000 ft
Evolucionant progressivament
l' 15 a les 03 UTC al 15 a les 04 UTC
Vent 8 kt del Nord/Nord-Oest
Evolucionant progressivament
l' 15 a les 10 UTC al 15 a les 11 UTC
Vent 7 kt del Est

TAF: RKSI 141700Z 1418/1524 07007KT 7000 SCT030 TN27/1421Z TX34/1505Z TN26/1521Z BECMG 1503/1504 33008KT BECMG 1510/1511 08007KT

Observacions i pronòstics meteorològics de més de 4000 aeroports (METAR i TAF).

Les estacions disponibles són els punts grocs i vermells al mapa.

Posi el ratolí al punt desitjat per veure el nom de l'estació.

Feu clic per veure les observacions i els pronòstics meteorològics.

Per canviar el mapa: feu clic els botons verds amb una creu de color negre per apropar; al botó verd amb un guió per allunyar la imatge; o en les fletxes verdes per a mapes adjacents.


METAR-TAF: